createdAt,value
2023-01-25T00:01:09.689Z,33.83
2023-01-25T00:03:40.616Z,33.42
2023-01-25T00:06:12.262Z,31.77
2023-01-25T00:08:42.936Z,34.43
2023-01-25T00:11:13.594Z,33.18
2023-01-25T00:13:44.261Z,40.92
2023-01-25T00:16:14.970Z,38.67
2023-01-25T00:18:45.778Z,40.58
2023-01-25T00:21:18.708Z,41.98
2023-01-25T00:23:49.785Z,44.88
2023-01-25T00:26:21.411Z,41.48
2023-01-25T00:28:52.986Z,43.10
2023-01-25T00:31:38.176Z,47.45
2023-01-25T00:34:30.982Z,45.85
2023-01-25T00:37:33.161Z,46.63
2023-01-25T00:40:03.972Z,35.40
2023-01-25T00:42:36.663Z,38.53
2023-01-25T00:45:08.306Z,38.73
2023-01-25T00:47:39.195Z,36.50
2023-01-25T00:50:11.235Z,36.53
2023-01-25T00:52:43.305Z,35.68
2023-01-25T00:55:14.069Z,38.40
2023-01-25T00:57:45.129Z,36.70
2023-01-25T01:00:16.657Z,34.70
2023-01-25T01:02:48.697Z,36.48
2023-01-25T01:05:22.794Z,35.43
2023-01-25T01:07:54.114Z,36.70
2023-01-25T01:10:28.020Z,52.43
2023-01-25T01:12:59.720Z,35.50
2023-01-25T01:15:31.014Z,35.33
2023-01-25T01:18:01.703Z,40.65
2023-01-25T01:20:33.186Z,37.90
2023-01-25T01:23:06.785Z,36.20
2023-01-25T01:25:37.949Z,33.28
2023-01-25T01:28:09.297Z,35.63
2023-01-25T01:30:40.675Z,41.13
2023-01-25T01:33:12.583Z,38.75
2023-01-25T01:35:46.859Z,32.30
2023-01-25T01:38:17.722Z,37.65
2023-01-25T01:40:49.393Z,35.78
2023-01-25T01:43:26.038Z,33.02
2023-01-25T01:46:01.972Z,31.82
2023-01-25T01:48:54.114Z,32.58
2023-01-25T01:51:46.607Z,35.43
2023-01-25T01:54:35.042Z,31.25
2023-01-25T01:57:08.243Z,29.37
2023-01-25T01:59:41.470Z,28.15
2023-01-25T02:02:13.568Z,29.23
2023-01-25T02:04:46.160Z,28.92
2023-01-25T02:07:24.903Z,30.90
2023-01-25T02:09:56.092Z,27.98
2023-01-25T02:12:27.131Z,29.75
2023-01-25T02:14:58.255Z,28.45
2023-01-25T02:20:28.239Z,28.47
2023-01-25T02:23:30.220Z,27.35
2023-01-25T02:26:06.100Z,31.05
2023-01-25T02:28:46.169Z,24.07
2023-01-25T02:31:17.793Z,28.05
2023-01-25T02:33:48.932Z,26.35
2023-01-25T02:36:25.722Z,27.13
2023-01-25T02:39:20.241Z,26.35
2023-01-25T02:41:50.941Z,26.75
2023-01-25T02:44:24.890Z,27.55
2023-01-25T02:46:56.383Z,31.23
2023-01-25T02:49:28.015Z,31.05
2023-01-25T02:51:59.421Z,27.30
2023-01-25T02:54:30.186Z,26.17
2023-01-25T02:57:01.196Z,28.42
2023-01-25T02:59:31.885Z,24.80
2023-01-25T03:02:03.366Z,24.65
2023-01-25T03:04:34.247Z,30.00
2023-01-25T03:07:05.337Z,27.02
2023-01-25T03:09:36.101Z,35.90
2023-01-25T03:12:07.303Z,27.62
2023-01-25T03:14:38.088Z,28.10
2023-01-25T03:17:09.392Z,31.95
2023-01-25T03:19:40.322Z,27.98
2023-01-25T03:22:12.075Z,31.70
2023-01-25T03:24:43.170Z,34.30
2023-01-25T03:27:15.437Z,34.75
2023-01-25T03:29:46.988Z,35.40
2023-01-25T03:32:17.796Z,37.00
2023-01-25T03:34:48.641Z,35.45
2023-01-25T03:37:19.919Z,34.38
2023-01-25T03:39:50.689Z,32.55
2023-01-25T03:42:23.396Z,31.60
2023-01-25T03:44:54.070Z,31.90
2023-01-25T03:47:24.851Z,34.43
2023-01-25T03:49:56.429Z,38.25
2023-01-25T03:52:30.311Z,35.00
2023-01-25T03:55:00.979Z,31.48
2023-01-25T03:57:32.301Z,29.67
2023-01-25T04:00:03.559Z,29.30
2023-01-25T04:02:34.751Z,32.80
2023-01-25T04:05:05.572Z,28.55
2023-01-25T04:07:42.953Z,31.02
2023-01-25T04:10:14.107Z,25.52
2023-01-25T04:12:44.903Z,26.27
2023-01-25T04:15:16.269Z,26.02
2023-01-25T04:17:49.834Z,23.02
2023-01-25T04:20:22.643Z,23.62
2023-01-25T04:22:53.985Z,33.80
2023-01-25T04:25:25.605Z,23.62
2023-01-25T04:27:56.501Z,23.27
2023-01-25T04:30:27.369Z,23.65
2023-01-25T04:32:58.118Z,25.75
2023-01-25T04:35:29.030Z,24.35
2023-01-25T04:38:00.901Z,23.52
2023-01-25T04:40:31.796Z,24.32
2023-01-25T04:43:02.484Z,19.90
2023-01-25T04:45:33.626Z,25.50
2023-01-25T04:48:06.333Z,22.40
2023-01-25T04:50:37.427Z,22.77
2023-01-25T04:53:09.450Z,21.25
2023-01-25T04:55:40.800Z,20.60
2023-01-25T04:58:12.079Z,19.52
2023-01-25T05:00:43.094Z,21.07
2023-01-25T05:03:14.386Z,19.07
2023-01-25T05:05:52.315Z,21.70
2023-01-25T05:08:23.663Z,20.08
2023-01-25T05:11:01.155Z,22.00
2023-01-25T05:13:31.855Z,20.55
2023-01-25T05:16:03.225Z,18.12
2023-01-25T05:18:47.466Z,22.60
2023-01-25T05:21:06.461Z,21.90
2023-01-25T05:23:37.465Z,25.57
2023-01-25T05:26:27.064Z,22.82
2023-01-25T05:28:58.109Z,23.65
2023-01-25T05:31:28.972Z,22.95
2023-01-25T05:34:03.162Z,21.30
2023-01-25T05:36:33.947Z,21.25
2023-01-25T05:39:04.812Z,17.55
2023-01-25T05:41:35.782Z,20.48
2023-01-25T05:44:06.677Z,19.82
2023-01-25T05:46:37.939Z,19.57
2023-01-25T05:49:09.068Z,21.17
2023-01-25T05:51:40.559Z,17.70
2023-01-25T05:54:14.129Z,20.35
2023-01-25T05:56:46.111Z,20.70
2023-01-25T05:59:18.411Z,19.87
2023-01-25T06:01:49.831Z,22.13
2023-01-25T06:04:21.205Z,19.87
2023-01-25T06:06:52.058Z,18.17
2023-01-25T06:09:24.038Z,23.10
2023-01-25T06:11:54.922Z,20.77
2023-01-25T06:14:25.667Z,21.05
2023-01-25T06:16:57.015Z,21.25
2023-01-25T06:19:27.806Z,28.23
2023-01-25T06:21:58.734Z,20.08
2023-01-25T06:24:29.846Z,19.02
2023-01-25T06:27:01.571Z,17.67
2023-01-25T06:29:32.289Z,19.73
2023-01-25T06:32:02.964Z,23.55
2023-01-25T06:34:34.767Z,21.12
2023-01-25T06:37:05.961Z,18.32
2023-01-25T06:39:37.031Z,18.77
2023-01-25T06:42:08.137Z,25.05
2023-01-25T06:44:38.927Z,19.05
2023-01-25T06:47:11.942Z,20.30
2023-01-25T06:49:43.259Z,23.98
2023-01-25T06:52:14.347Z,21.17
2023-01-25T06:54:45.332Z,20.80
2023-01-25T06:57:16.243Z,20.27
2023-01-25T06:59:47.012Z,20.62
2023-01-25T07:02:18.730Z,20.17
2023-01-25T07:04:49.722Z,20.62
2023-01-25T07:07:21.107Z,18.75
2023-01-25T07:09:52.172Z,21.02
2023-01-25T07:12:23.476Z,20.72
2023-01-25T07:14:54.376Z,24.92
2023-01-25T07:17:25.873Z,18.67
2023-01-25T07:19:56.696Z,20.68
2023-01-25T07:22:27.575Z,20.30
2023-01-25T07:25:00.146Z,18.30
2023-01-25T07:27:36.417Z,20.60
2023-01-25T07:30:08.609Z,21.23
2023-01-25T07:32:39.562Z,21.25
2023-01-25T07:35:11.458Z,19.65
2023-01-25T07:37:42.261Z,20.92
2023-01-25T07:40:14.583Z,17.55
2023-01-25T07:42:55.982Z,21.95
2023-01-25T07:45:33.545Z,22.45
2023-01-25T07:48:08.999Z,19.15
2023-01-25T07:50:40.744Z,15.95
2023-01-25T07:53:11.549Z,24.57
2023-01-25T07:55:43.025Z,20.23
2023-01-25T07:58:18.866Z,21.05
2023-01-25T08:00:52.658Z,21.50
2023-01-25T08:03:23.486Z,17.50
2023-01-25T08:06:00.751Z,17.20
2023-01-25T08:08:31.203Z,18.52
2023-01-25T08:11:01.960Z,17.98
2023-01-25T08:13:32.694Z,19.17
2023-01-25T08:16:03.794Z,19.52
2023-01-25T08:18:36.063Z,23.12
2023-01-25T08:21:07.910Z,17.80
2023-01-25T08:23:38.880Z,16.67
2023-01-25T08:26:11.774Z,17.37
2023-01-25T08:28:44.211Z,19.92
2023-01-25T08:31:20.533Z,18.30
2023-01-25T08:33:52.266Z,15.70
2023-01-25T08:36:25.207Z,20.68
2023-01-25T08:39:05.757Z,18.62
2023-01-25T08:41:37.827Z,22.67
2023-01-25T08:44:10.313Z,21.48
2023-01-25T08:46:44.726Z,18.77
2023-01-25T08:49:16.185Z,17.00
2023-01-25T08:51:48.404Z,18.02
2023-01-25T08:54:19.336Z,20.40
2023-01-25T08:56:51.014Z,19.95
2023-01-25T08:59:21.781Z,20.72
2023-01-25T09:01:52.908Z,18.67
2023-01-25T09:04:25.643Z,17.35
2023-01-25T09:06:57.072Z,20.23
2023-01-25T09:09:27.853Z,19.37
2023-01-25T09:11:59.031Z,23.52
2023-01-25T09:14:30.481Z,20.82
2023-01-25T09:17:01.406Z,18.92
2023-01-25T09:19:32.548Z,17.95
2023-01-25T09:22:04.515Z,20.68
2023-01-25T09:24:37.313Z,19.40
2023-01-25T09:27:08.247Z,17.17
2023-01-25T09:29:41.513Z,20.62
2023-01-25T09:32:12.106Z,23.15
2023-01-25T09:34:43.839Z,21.85
2023-01-25T09:37:15.149Z,19.40
2023-01-25T09:39:45.920Z,20.62
2023-01-25T09:42:38.325Z,19.30
2023-01-25T09:45:20.464Z,23.77
2023-01-25T09:48:00.392Z,17.98
2023-01-25T09:50:36.829Z,19.27
2023-01-25T09:53:26.028Z,19.82
2023-01-25T09:56:02.851Z,21.23
2023-01-25T10:01:19.678Z,18.27
2023-01-25T10:03:56.729Z,20.65
2023-01-25T10:06:30.486Z,22.77
2023-01-25T10:09:17.139Z,21.70
2023-01-25T10:11:43.092Z,25.02
2023-01-25T10:14:19.638Z,19.10
2023-01-25T10:16:53.110Z,18.93
2023-01-25T10:19:29.485Z,21.87
2023-01-25T10:22:20.392Z,20.72
2023-01-25T10:24:58.646Z,18.37
2023-01-25T10:27:58.314Z,20.12
2023-01-25T10:30:35.786Z,20.30
2023-01-25T10:33:13.071Z,22.35
2023-01-25T10:35:47.519Z,20.37
2023-01-25T10:38:29.793Z,24.43
2023-01-25T10:41:03.371Z,18.48
2023-01-25T10:43:34.205Z,18.80
2023-01-25T10:46:05.431Z,25.15
2023-01-25T10:48:38.822Z,23.38
2023-01-25T10:51:14.464Z,20.08
2023-01-25T10:53:45.825Z,18.87
2023-01-25T10:56:20.335Z,24.10
2023-01-25T10:58:54.788Z,22.90
2023-01-25T11:01:40.818Z,19.98
2023-01-25T11:04:14.424Z,22.10
2023-01-25T11:06:53.956Z,23.57
2023-01-25T11:09:45.498Z,17.77
2023-01-25T11:12:21.671Z,21.00
2023-01-25T11:14:52.938Z,19.95
2023-01-25T11:17:26.879Z,18.02
2023-01-25T11:20:20.606Z,21.02
2023-01-25T11:22:57.183Z,28.40
2023-01-25T11:25:31.726Z,24.85
2023-01-25T11:28:21.123Z,30.05
2023-01-25T11:30:54.193Z,29.65
2023-01-25T11:33:27.700Z,28.98
2023-01-25T11:36:28.212Z,26.17
2023-01-25T11:39:01.585Z,25.17
2023-01-25T11:41:37.388Z,21.97
2023-01-25T11:44:32.827Z,27.77
2023-01-25T11:47:08.741Z,26.07
2023-01-25T11:49:53.784Z,22.22
2023-01-25T11:52:32.593Z,27.32
2023-01-25T11:55:22.088Z,25.97
2023-01-25T11:58:13.187Z,28.30
2023-01-25T12:00:50.266Z,26.87
2023-01-25T12:03:36.839Z,29.50
2023-01-25T12:09:00.267Z,39.67
2023-01-25T12:12:00.992Z,29.80
2023-01-25T12:14:37.173Z,28.73
2023-01-25T12:17:21.149Z,28.70
2023-01-25T12:20:00.304Z,30.20
2023-01-25T12:23:01.383Z,35.35
2023-01-25T12:25:53.386Z,33.35
2023-01-25T12:28:26.624Z,37.50
2023-01-25T12:31:18.033Z,39.03
2023-01-25T12:33:56.722Z,43.40
2023-01-25T12:36:42.223Z,36.88
2023-01-25T12:39:18.484Z,41.18
2023-01-25T12:41:55.643Z,43.40
2023-01-25T12:44:29.128Z,39.83
2023-01-25T12:47:05.788Z,39.05
2023-01-25T12:49:42.732Z,58.95
2023-01-25T12:52:28.110Z,56.18
2023-01-25T12:55:03.879Z,73.65
2023-01-25T12:57:43.172Z,56.53
2023-01-25T13:00:32.780Z,59.20
2023-01-25T13:03:27.226Z,44.00
2023-01-25T13:06:03.629Z,48.92
2023-01-25T13:08:53.448Z,42.33
2023-01-25T13:11:44.113Z,39.83
2023-01-25T13:14:23.458Z,37.17
2023-01-25T13:17:09.732Z,39.35
2023-01-25T13:19:37.660Z,42.27
2023-01-25T13:22:08.655Z,33.00
2023-01-25T13:24:58.311Z,40.48
2023-01-25T13:27:38.163Z,40.92
2023-01-25T13:30:23.972Z,40.55
2023-01-25T13:32:57.266Z,44.70
2023-01-25T13:35:33.834Z,42.83
2023-01-25T13:38:09.722Z,39.88
2023-01-25T13:40:43.760Z,35.85
2023-01-25T13:43:24.740Z,36.85
2023-01-25T13:45:56.838Z,37.13
2023-01-25T13:48:30.189Z,40.83
2023-01-25T13:51:12.532Z,36.25
2023-01-25T13:53:44.696Z,35.70
2023-01-25T13:56:36.119Z,34.92
2023-01-25T13:59:07.344Z,39.45
2023-01-25T14:01:42.929Z,39.58
2023-01-25T14:04:14.958Z,36.10
2023-01-25T14:06:47.275Z,39.48
2023-01-25T14:09:21.476Z,39.50
2023-01-25T14:12:03.140Z,37.05
2023-01-25T14:14:38.761Z,35.40
2023-01-25T14:17:20.604Z,40.63
2023-01-25T14:19:54.307Z,43.17
2023-01-25T14:22:36.914Z,36.80
2023-01-25T14:25:16.339Z,44.03
2023-01-25T14:27:49.854Z,48.15
2023-01-25T14:30:26.419Z,48.28
2023-01-25T14:32:59.882Z,46.15
2023-01-25T14:35:53.663Z,53.25
2023-01-25T14:38:32.850Z,44.55
2023-01-25T14:41:33.840Z,54.65
2023-01-25T14:44:10.644Z,54.38
2023-01-25T14:46:42.606Z,52.73
2023-01-25T14:49:27.420Z,53.33
2023-01-25T14:52:18.725Z,58.28
2023-01-25T14:54:52.122Z,49.53
2023-01-25T14:57:28.875Z,51.70
2023-01-25T15:00:01.965Z,53.25
2023-01-25T15:02:45.695Z,46.60
2023-01-25T15:05:31.173Z,50.30
2023-01-25T15:08:15.317Z,46.88
2023-01-25T15:11:06.135Z,50.65
2023-01-25T15:13:37.003Z,44.88
2023-01-25T15:16:07.985Z,45.95
2023-01-25T15:18:53.535Z,53.98
2023-01-25T15:21:29.590Z,49.88
2023-01-25T15:24:03.726Z,50.10
2023-01-25T15:26:36.635Z,45.00
2023-01-25T15:29:24.699Z,48.08
2023-01-25T15:31:57.365Z,47.90
2023-01-25T15:34:34.553Z,48.10
2023-01-25T15:37:05.354Z,48.87
2023-01-25T15:39:36.165Z,44.30
2023-01-25T15:42:08.006Z,44.80
2023-01-25T15:44:38.814Z,49.65
2023-01-25T15:47:09.681Z,43.98
2023-01-25T15:49:40.691Z,47.10
2023-01-25T15:52:12.920Z,42.25
2023-01-25T15:54:51.751Z,54.08
2023-01-25T15:57:24.525Z,50.05
2023-01-25T15:59:56.703Z,50.70
2023-01-25T16:02:27.605Z,51.30
2023-01-25T16:04:58.514Z,55.52
2023-01-25T16:07:31.819Z,49.73
2023-01-25T16:10:02.526Z,51.88
2023-01-25T16:12:37.275Z,53.10
2023-01-25T16:15:08.752Z,52.35
2023-01-25T16:17:43.554Z,57.75
2023-01-25T16:20:21.755Z,56.33
2023-01-25T16:22:54.361Z,60.15
2023-01-25T16:25:25.359Z,57.10
2023-01-25T16:27:56.231Z,57.17
2023-01-25T16:30:29.948Z,60.50
2023-01-25T16:33:00.978Z,59.10
2023-01-25T16:35:31.710Z,52.85
2023-01-25T16:38:02.683Z,51.85
2023-01-25T16:40:39.931Z,54.27
2023-01-25T16:43:10.942Z,55.45
2023-01-25T16:45:41.851Z,59.25
2023-01-25T16:48:16.483Z,58.05
2023-01-25T16:50:47.327Z,58.70
2023-01-25T16:53:17.997Z,52.53
2023-01-25T16:55:50.190Z,55.12
2023-01-25T16:58:20.892Z,53.40
2023-01-25T17:00:58.603Z,59.23
2023-01-25T17:03:30.555Z,57.23
2023-01-25T17:06:02.019Z,76.65
2023-01-25T17:08:32.883Z,57.67
2023-01-25T17:11:10.050Z,57.78
2023-01-25T17:13:42.920Z,55.65
2023-01-25T17:16:13.139Z,59.88
2023-01-25T17:18:44.075Z,57.00
2023-01-25T17:21:20.559Z,57.67
2023-01-25T17:23:52.097Z,54.35
2023-01-25T17:26:24.569Z,54.63
2023-01-25T17:28:57.806Z,54.42
2023-01-25T17:31:31.342Z,55.67
2023-01-25T17:34:07.478Z,54.08
2023-01-25T17:36:38.153Z,51.95
2023-01-25T17:39:10.243Z,50.92
2023-01-25T17:41:41.013Z,50.10
2023-01-25T17:44:12.191Z,49.53
2023-01-25T17:46:43.237Z,53.73
2023-01-25T17:49:15.681Z,51.63
2023-01-25T17:51:46.790Z,54.08
2023-01-25T17:54:17.611Z,54.53
2023-01-25T17:56:48.605Z,52.27
2023-01-25T17:59:19.503Z,47.13
2023-01-25T18:01:51.123Z,50.28
2023-01-25T18:04:22.161Z,56.77
2023-01-25T18:06:52.920Z,56.65
2023-01-25T18:09:24.910Z,51.15
2023-01-25T18:11:55.599Z,62.65
2023-01-25T18:14:26.391Z,56.18
2023-01-25T18:16:57.189Z,54.27
2023-01-25T18:19:29.248Z,53.10
2023-01-25T18:22:00.600Z,53.90
2023-01-25T18:24:36.696Z,54.48
2023-01-25T18:27:09.750Z,52.33
2023-01-25T18:30:08.441Z,47.20
2023-01-25T18:32:39.373Z,44.80
2023-01-25T18:35:11.031Z,49.77
2023-01-25T18:37:43.356Z,44.77
2023-01-25T18:40:16.725Z,46.40
2023-01-25T18:42:47.924Z,44.18
2023-01-25T18:45:18.947Z,39.90
2023-01-25T18:47:50.348Z,43.00
2023-01-25T18:50:21.627Z,40.28
2023-01-25T18:52:52.806Z,36.77
2023-01-25T18:55:23.508Z,46.37
2023-01-25T18:57:54.213Z,41.28
2023-01-25T19:00:25.218Z,40.73
2023-01-25T19:02:55.977Z,41.37
2023-01-25T19:05:26.891Z,40.52
2023-01-25T19:07:57.688Z,42.38
2023-01-25T19:10:28.486Z,36.20
2023-01-25T19:12:59.154Z,41.40
2023-01-25T19:15:30.516Z,44.42
2023-01-25T19:18:01.993Z,42.88
2023-01-25T19:20:32.778Z,37.85
2023-01-25T19:23:03.574Z,41.40
2023-01-25T19:25:34.265Z,40.52
2023-01-25T19:28:04.934Z,43.78
2023-01-25T19:30:35.753Z,41.20
2023-01-25T19:33:06.660Z,41.70
2023-01-25T19:35:37.382Z,39.48
2023-01-25T19:38:08.576Z,42.20
2023-01-25T19:40:39.274Z,43.00
2023-01-25T19:43:13.018Z,42.70
2023-01-25T19:45:43.783Z,43.85
2023-01-25T19:48:21.044Z,43.60
2023-01-25T19:50:52.122Z,42.17
2023-01-25T19:53:22.847Z,46.10
2023-01-25T19:55:53.654Z,41.15
2023-01-25T19:58:26.851Z,40.52
2023-01-25T20:00:57.642Z,44.00
2023-01-25T20:03:28.420Z,49.45
2023-01-25T20:06:02.636Z,46.63
2023-01-25T20:08:34.229Z,39.58
2023-01-25T20:11:07.176Z,41.00
2023-01-25T20:13:37.939Z,41.63
2023-01-25T20:16:10.282Z,43.35
2023-01-25T20:18:41.552Z,42.55
2023-01-25T20:21:14.785Z,40.70
2023-01-25T20:23:46.879Z,44.75
2023-01-25T20:26:22.234Z,43.80
2023-01-25T20:28:54.556Z,45.10
2023-01-25T20:31:36.650Z,43.40
2023-01-25T20:34:18.671Z,45.70
2023-01-25T20:36:50.137Z,43.70
2023-01-25T20:39:22.554Z,45.88
2023-01-25T20:41:54.414Z,41.30
2023-01-25T20:44:25.214Z,44.63
2023-01-25T20:46:56.453Z,42.53
2023-01-25T20:49:27.160Z,40.45
2023-01-25T20:51:57.842Z,44.35
2023-01-25T20:54:28.603Z,43.78
2023-01-25T20:56:59.381Z,43.68
2023-01-25T20:59:30.067Z,41.53
2023-01-25T21:02:00.872Z,42.17
2023-01-25T21:04:31.825Z,42.40
2023-01-25T21:07:02.627Z,40.50
2023-01-25T21:09:33.399Z,47.90
2023-01-25T21:12:04.175Z,46.65
2023-01-25T21:14:34.963Z,42.40
2023-01-25T21:17:05.782Z,42.25
2023-01-25T21:19:36.454Z,43.25
2023-01-25T21:22:07.294Z,45.70
2023-01-25T21:24:38.126Z,42.80
2023-01-25T21:27:09.791Z,43.87
2023-01-25T21:29:40.479Z,43.00
2023-01-25T21:32:11.147Z,47.00
2023-01-25T21:34:41.862Z,47.13
2023-01-25T21:37:12.538Z,44.55
2023-01-25T21:39:43.332Z,48.80
2023-01-25T21:42:14.097Z,45.85
2023-01-25T21:45:02.499Z,41.55
2023-01-25T21:47:33.956Z,45.98
2023-01-25T21:50:22.439Z,41.75
2023-01-25T21:52:53.237Z,46.95
2023-01-25T21:55:23.895Z,48.58
2023-01-25T21:57:54.600Z,44.63
2023-01-25T22:00:25.639Z,46.70
2023-01-25T22:02:56.305Z,48.33
2023-01-25T22:05:27.154Z,48.00
2023-01-25T22:07:57.942Z,49.83
2023-01-25T22:10:28.627Z,49.65
2023-01-25T22:12:59.416Z,53.15
2023-01-25T22:15:30.116Z,51.18
2023-01-25T22:18:00.877Z,46.65
2023-01-25T22:20:31.724Z,51.05
2023-01-25T22:23:02.433Z,47.35
2023-01-25T22:25:33.123Z,51.15
2023-01-25T22:28:05.141Z,54.18
2023-01-25T22:30:35.859Z,54.38
2023-01-25T22:33:06.626Z,55.75
2023-01-25T22:35:37.294Z,63.00
2023-01-25T22:38:07.971Z,54.55
2023-01-25T22:40:38.611Z,52.60
2023-01-25T22:43:09.280Z,55.67
2023-01-25T22:45:40.069Z,58.15
2023-01-25T22:48:10.761Z,58.02
2023-01-25T22:50:42.291Z,60.58
2023-01-25T22:53:13.195Z,60.40
2023-01-25T22:55:44.371Z,61.55
2023-01-25T22:58:15.142Z,59.00
2023-01-25T23:00:45.809Z,58.98
2023-01-25T23:03:16.616Z,57.33
2023-01-25T23:05:50.357Z,57.20
2023-01-25T23:08:21.026Z,60.52
2023-01-25T23:10:51.821Z,59.58
2023-01-25T23:13:23.780Z,56.85
2023-01-25T23:15:54.472Z,63.73
2023-01-25T23:18:43.536Z,70.85
2023-01-25T23:21:14.203Z,59.33
2023-01-25T23:23:44.991Z,63.20
2023-01-25T23:26:16.594Z,56.00
2023-01-25T23:28:55.171Z,58.83
2023-01-25T23:31:27.267Z,59.65
2023-01-25T23:34:00.397Z,64.05
2023-01-25T23:36:33.606Z,62.93
2023-01-25T23:39:04.713Z,56.10
2023-01-25T23:41:35.816Z,53.68
2023-01-25T23:44:06.795Z,60.35
2023-01-25T23:46:37.612Z,64.10
2023-01-25T23:49:08.365Z,61.13
2023-01-25T23:51:39.788Z,58.87
2023-01-25T23:54:10.676Z,54.25
2023-01-25T23:56:41.493Z,64.12
2023-01-25T23:59:12.167Z,58.08
